createdAt,value
2023-05-25T00:00:50.053Z,56.00
2023-05-25T00:03:20.412Z,55.70
2023-05-25T00:05:47.015Z,55.70
2023-05-25T00:08:17.935Z,55.60
2023-05-25T00:10:44.451Z,55.50
2023-05-25T00:13:10.976Z,55.50
2023-05-25T00:15:37.516Z,55.60
2023-05-25T00:18:04.068Z,55.60
2023-05-25T00:20:30.675Z,55.60
2023-05-25T00:22:57.253Z,55.50
2023-05-25T00:25:23.811Z,55.40
2023-05-25T00:27:50.357Z,55.50
2023-05-25T00:30:16.887Z,55.50
2023-05-25T00:32:43.464Z,55.40
2023-05-25T00:35:09.992Z,55.50
2023-05-25T00:37:36.534Z,55.50
2023-05-25T00:40:03.077Z,55.30
2023-05-25T00:42:29.622Z,55.50
2023-05-25T00:44:56.165Z,55.40
2023-05-25T00:47:22.855Z,55.60
2023-05-25T00:49:49.418Z,55.50
2023-05-25T00:52:15.988Z,55.60
2023-05-25T00:54:42.503Z,55.60
2023-05-25T00:57:09.068Z,55.70
2023-05-25T00:59:35.627Z,55.60
2023-05-25T01:02:02.245Z,55.60
2023-05-25T01:04:28.788Z,55.60
2023-05-25T01:06:55.339Z,55.50
2023-05-25T01:09:21.880Z,55.60
2023-05-25T01:11:48.452Z,55.60
2023-05-25T01:14:14.985Z,55.60
2023-05-25T01:16:41.668Z,55.60
2023-05-25T01:19:08.328Z,55.60
2023-05-25T01:21:34.863Z,55.60
2023-05-25T01:24:01.418Z,55.50
2023-05-25T01:26:27.952Z,55.50
2023-05-25T01:28:54.518Z,55.50
2023-05-25T01:31:21.053Z,55.50
2023-05-25T01:33:47.591Z,55.50
2023-05-25T01:36:14.120Z,55.50
2023-05-25T01:38:40.650Z,55.60
2023-05-25T01:41:07.175Z,55.50
2023-05-25T01:43:33.736Z,55.50
2023-05-25T01:46:00.316Z,55.50
2023-05-25T01:48:26.935Z,55.50
2023-05-25T01:50:53.463Z,55.50
2023-05-25T01:53:19.977Z,55.60
2023-05-25T01:55:46.498Z,55.50
2023-05-25T01:58:13.020Z,55.50
2023-05-25T02:00:39.553Z,55.60
2023-05-25T02:03:06.125Z,55.60
2023-05-25T02:05:32.661Z,55.60
2023-05-25T02:07:59.197Z,55.40
2023-05-25T02:10:25.723Z,55.50
2023-05-25T02:12:52.275Z,55.50
2023-05-25T02:15:18.788Z,55.40
2023-05-25T02:17:45.318Z,55.40
2023-05-25T02:20:11.949Z,55.30
2023-05-25T02:22:38.514Z,55.40
2023-05-25T02:25:05.057Z,55.50
2023-05-25T02:27:31.556Z,55.40
2023-05-25T02:29:59.896Z,55.50
2023-05-25T02:32:26.455Z,55.40
2023-05-25T02:34:52.972Z,55.30
2023-05-25T02:37:19.473Z,55.50
2023-05-25T02:39:45.994Z,55.50
2023-05-25T02:42:12.528Z,55.30
2023-05-25T02:44:39.084Z,55.50
2023-05-25T02:47:05.654Z,55.40
2023-05-25T02:49:32.201Z,55.50
2023-05-25T02:51:58.735Z,55.40
2023-05-25T02:54:25.277Z,55.50
2023-05-25T02:56:51.793Z,55.50
2023-05-25T02:59:18.330Z,55.50
2023-05-25T03:01:44.842Z,55.40
2023-05-25T03:04:11.376Z,55.40
2023-05-25T03:06:37.937Z,55.50
2023-05-25T03:09:04.549Z,55.60
2023-05-25T03:11:31.102Z,55.50
2023-05-25T03:13:57.646Z,55.40
2023-05-25T03:16:24.265Z,55.40
2023-05-25T03:18:50.833Z,55.60
2023-05-25T03:21:17.349Z,55.40
2023-05-25T03:23:43.848Z,55.40
2023-05-25T03:26:10.412Z,55.20
2023-05-25T03:28:36.914Z,55.30
2023-05-25T03:31:03.457Z,55.30
2023-05-25T03:33:29.997Z,55.30
2023-05-25T03:35:56.527Z,55.50
2023-05-25T03:38:23.052Z,55.40
2023-05-25T03:40:49.596Z,55.40
2023-05-25T03:43:16.098Z,55.40
2023-05-25T03:45:42.753Z,55.30
2023-05-25T03:48:09.405Z,55.20
2023-05-25T03:50:35.936Z,55.30
2023-05-25T03:53:02.431Z,55.20
2023-05-25T03:55:28.967Z,55.30
2023-05-25T03:57:55.464Z,55.30
2023-05-25T04:00:21.991Z,55.30
2023-05-25T04:02:48.600Z,55.40
2023-05-25T04:05:15.174Z,55.30
2023-05-25T04:07:41.689Z,55.40
2023-05-25T04:10:08.205Z,55.10
2023-05-25T04:12:34.731Z,55.20
2023-05-25T04:15:01.316Z,55.20
2023-05-25T04:17:27.878Z,55.30
2023-05-25T04:19:54.437Z,55.20
2023-05-25T04:22:20.967Z,55.20
2023-05-25T04:24:47.508Z,55.20
2023-05-25T04:27:14.014Z,55.20
2023-05-25T04:29:40.522Z,55.20
2023-05-25T04:32:07.024Z,55.30
2023-05-25T04:34:33.546Z,55.20
2023-05-25T04:37:00.130Z,55.20
2023-05-25T04:39:29.971Z,55.20
2023-05-25T04:41:56.514Z,55.10
2023-05-25T04:44:23.036Z,55.20
2023-05-25T04:46:49.562Z,55.30
2023-05-25T04:49:16.085Z,55.30
2023-05-25T04:51:42.632Z,55.20
2023-05-25T04:54:09.148Z,55.10
2023-05-25T04:56:42.003Z,55.20
2023-05-25T04:59:08.518Z,55.20
2023-05-25T05:01:35.106Z,55.20
2023-05-25T05:04:01.959Z,55.00
2023-05-25T05:06:28.546Z,55.00
2023-05-25T05:08:55.066Z,54.60
2023-05-25T05:11:21.600Z,54.60
2023-05-25T05:13:48.114Z,54.60
2023-05-25T05:16:14.717Z,54.50
2023-05-25T05:18:41.307Z,54.50
2023-05-25T05:21:07.833Z,54.60
2023-05-25T05:23:34.352Z,54.60
2023-05-25T05:26:00.905Z,54.60
2023-05-25T05:28:27.468Z,54.60
2023-05-25T05:30:53.999Z,54.70
2023-05-25T05:33:20.595Z,54.90
2023-05-25T05:35:47.186Z,54.80
2023-05-25T05:38:13.732Z,54.80
2023-05-25T05:40:40.262Z,54.80
2023-05-25T05:43:12.030Z,55.00
2023-05-25T05:45:38.549Z,54.90
2023-05-25T05:48:05.109Z,55.00
2023-05-25T05:50:31.630Z,55.00
2023-05-25T05:52:58.168Z,55.00
2023-05-25T05:55:24.668Z,54.80
2023-05-25T05:57:51.213Z,54.90
2023-05-25T06:00:17.732Z,54.90
2023-05-25T06:02:44.305Z,55.00
2023-05-25T06:05:10.924Z,55.00
2023-05-25T06:07:37.507Z,55.00
2023-05-25T06:10:04.006Z,55.00
2023-05-25T06:12:36.041Z,55.00
2023-05-25T06:15:02.566Z,54.90
2023-05-25T06:17:29.146Z,54.80
2023-05-25T06:19:55.727Z,54.80
2023-05-25T06:22:22.246Z,54.80
2023-05-25T06:24:48.768Z,54.80
2023-05-25T06:27:15.313Z,54.90
2023-05-25T06:29:41.950Z,54.70
2023-05-25T06:32:08.546Z,54.70
2023-05-25T06:34:37.910Z,54.90
2023-05-25T06:37:04.730Z,54.90
2023-05-25T06:39:31.263Z,55.10
2023-05-25T06:41:57.788Z,55.00
2023-05-25T06:44:24.354Z,55.10
2023-05-25T06:46:50.942Z,55.20
2023-05-25T06:49:17.509Z,55.10
2023-05-25T06:51:44.045Z,55.00
2023-05-25T06:54:10.571Z,55.10
2023-05-25T06:56:37.074Z,55.90
2023-05-25T06:59:03.603Z,55.30
2023-05-25T07:01:30.145Z,55.20
2023-05-25T07:03:56.689Z,55.20
2023-05-25T07:06:23.205Z,55.20
2023-05-25T07:08:49.723Z,55.20
2023-05-25T07:11:16.258Z,55.20
2023-05-25T07:13:42.781Z,55.30
2023-05-25T07:16:09.335Z,55.30
2023-05-25T07:18:35.892Z,55.30
2023-05-25T07:21:02.406Z,55.40
2023-05-25T07:23:28.954Z,55.20
2023-05-25T07:25:55.469Z,55.20
2023-05-25T07:28:21.980Z,55.30
2023-05-25T07:30:48.494Z,55.30
2023-05-25T07:33:14.992Z,55.20
2023-05-25T07:35:41.511Z,55.40
2023-05-25T07:38:08.028Z,55.30
2023-05-25T07:40:34.537Z,55.30
2023-05-25T07:43:01.099Z,55.30
2023-05-25T07:45:27.602Z,55.30
2023-05-25T07:47:54.157Z,55.50
2023-05-25T07:50:20.680Z,55.40
2023-05-25T07:52:47.188Z,55.50
2023-05-25T07:55:13.729Z,55.60
2023-05-25T07:57:42.158Z,55.60
2023-05-25T08:00:08.707Z,55.50
2023-05-25T08:02:35.303Z,55.50
2023-05-25T08:05:02.002Z,55.40
2023-05-25T08:07:28.583Z,55.50
2023-05-25T08:09:55.118Z,55.60
2023-05-25T08:12:38.366Z,55.60
2023-05-25T08:15:08.123Z,55.60
2023-05-25T08:17:34.719Z,55.70
2023-05-25T08:20:01.349Z,55.60
2023-05-25T08:22:27.902Z,55.60
2023-05-25T08:24:54.438Z,55.70
2023-05-25T08:27:20.948Z,55.80
2023-05-25T08:29:47.483Z,55.80
2023-05-25T08:32:13.985Z,55.80
2023-05-25T08:34:40.526Z,55.80
2023-05-25T08:37:07.054Z,55.80
2023-05-25T08:39:34.831Z,55.70
2023-05-25T08:42:01.565Z,55.70
2023-05-25T08:44:28.191Z,55.80
2023-05-25T08:46:54.693Z,56.50
2023-05-25T08:49:21.276Z,55.90
2023-05-25T08:51:47.819Z,55.80
2023-05-25T08:54:14.333Z,55.80
2023-05-25T08:56:40.845Z,56.00
2023-05-25T08:59:07.365Z,55.90
2023-05-25T09:01:33.919Z,55.90
2023-05-25T09:04:00.515Z,55.90
2023-05-25T09:06:27.085Z,56.00
2023-05-25T09:08:53.624Z,55.90
2023-05-25T09:11:32.012Z,56.00
2023-05-25T09:14:04.327Z,55.90
2023-05-25T09:16:30.883Z,55.90
2023-05-25T09:18:57.426Z,55.90
2023-05-25T09:21:23.971Z,56.00
2023-05-25T09:23:50.476Z,56.00
2023-05-25T09:26:17.003Z,55.90
2023-05-25T09:28:43.523Z,56.00
2023-05-25T09:31:10.054Z,56.00
2023-05-25T09:33:37.047Z,56.00
2023-05-25T09:36:03.755Z,56.10
2023-05-25T09:38:30.664Z,56.10
2023-05-25T09:40:57.300Z,56.10
2023-05-25T09:43:39.757Z,56.10
2023-05-25T09:46:06.997Z,56.10
2023-05-25T09:48:33.528Z,56.10
2023-05-25T09:51:00.061Z,56.10
2023-05-25T09:53:26.566Z,56.10
2023-05-25T09:55:54.404Z,56.10
2023-05-25T09:58:21.120Z,56.10
2023-05-25T10:00:47.703Z,56.10
2023-05-25T10:03:14.251Z,56.20
2023-05-25T10:05:40.805Z,56.20
2023-05-25T10:08:07.375Z,56.10
2023-05-25T10:10:33.893Z,56.10
2023-05-25T10:13:00.429Z,56.10
2023-05-25T10:15:27.008Z,56.10
2023-05-25T10:17:53.575Z,56.10
2023-05-25T10:20:20.243Z,56.20
2023-05-25T10:22:46.895Z,56.20
2023-05-25T10:25:13.406Z,56.20
2023-05-25T10:27:39.949Z,56.10
2023-05-25T10:30:06.445Z,56.10
2023-05-25T10:32:33.084Z,56.10
2023-05-25T10:34:59.585Z,56.10
2023-05-25T10:37:27.212Z,56.10
2023-05-25T10:39:53.740Z,56.00
2023-05-25T10:42:20.269Z,56.00
2023-05-25T10:44:46.829Z,56.00
2023-05-25T10:47:13.639Z,56.00
2023-05-25T10:49:40.190Z,56.00
2023-05-25T10:52:06.736Z,56.10
2023-05-25T10:54:33.266Z,56.00
2023-05-25T10:56:59.793Z,56.00
2023-05-25T10:59:26.298Z,56.00
2023-05-25T11:01:52.864Z,56.10
2023-05-25T11:04:19.448Z,56.00
2023-05-25T11:06:45.988Z,56.00
2023-05-25T11:09:12.513Z,56.00
2023-05-25T11:11:39.016Z,56.00
2023-05-25T11:14:05.570Z,56.00
2023-05-25T11:16:32.125Z,56.10
2023-05-25T11:18:58.677Z,56.00
2023-05-25T11:21:25.222Z,56.00
2023-05-25T11:23:51.790Z,56.00
2023-05-25T11:26:18.313Z,56.10
2023-05-25T11:28:44.877Z,56.10
2023-05-25T11:31:11.549Z,56.10
2023-05-25T11:33:38.136Z,56.10
2023-05-25T11:36:04.678Z,56.10
2023-05-25T11:38:31.216Z,56.10
2023-05-25T11:40:57.708Z,56.10
2023-05-25T11:43:24.239Z,56.10
2023-05-25T11:45:50.740Z,56.20
2023-05-25T11:48:17.333Z,56.20
2023-05-25T11:50:44.130Z,56.10
2023-05-25T11:53:10.887Z,56.20
2023-05-25T11:55:37.393Z,56.20
2023-05-25T11:58:03.946Z,56.10
2023-05-25T12:00:30.488Z,56.20
2023-05-25T12:02:57.061Z,56.20
2023-05-25T12:05:23.595Z,56.10
2023-05-25T12:07:50.136Z,56.10
2023-05-25T12:10:16.765Z,56.10
2023-05-25T12:12:43.360Z,56.10
2023-05-25T12:15:09.915Z,56.10
2023-05-25T12:17:36.456Z,56.00
2023-05-25T12:20:03.052Z,56.10
2023-05-25T12:22:29.612Z,56.10
2023-05-25T12:24:56.155Z,56.00
2023-05-25T12:27:22.734Z,56.10
2023-05-25T12:29:49.251Z,56.00
2023-05-25T12:32:15.806Z,56.10
2023-05-25T12:34:42.338Z,56.10
2023-05-25T12:37:08.866Z,56.10
2023-05-25T12:39:35.409Z,56.10
2023-05-25T12:42:01.958Z,56.10
2023-05-25T12:44:28.516Z,56.20
2023-05-25T12:46:55.095Z,56.10
2023-05-25T12:49:21.658Z,56.10
2023-05-25T12:51:48.161Z,56.10
2023-05-25T12:54:14.698Z,56.10
2023-05-25T12:56:41.194Z,56.20
2023-05-25T12:59:07.719Z,56.10
2023-05-25T13:01:34.274Z,56.10
2023-05-25T13:04:00.825Z,56.20
2023-05-25T13:06:27.346Z,56.10
2023-05-25T13:08:53.885Z,56.20
2023-05-25T13:11:20.412Z,56.20
2023-05-25T13:13:47.041Z,56.20
2023-05-25T13:16:13.612Z,56.10
2023-05-25T13:18:40.175Z,56.20
2023-05-25T13:21:06.894Z,56.20
2023-05-25T13:23:33.519Z,56.20
2023-05-25T13:26:00.048Z,56.20
2023-05-25T13:28:26.579Z,56.20
2023-05-25T13:30:53.100Z,56.20
2023-05-25T13:33:19.648Z,56.20
2023-05-25T13:35:46.344Z,56.20
2023-05-25T13:38:14.035Z,56.20
2023-05-25T13:40:42.454Z,56.20
2023-05-25T13:43:09.009Z,56.20
2023-05-25T13:45:35.550Z,56.20
2023-05-25T13:48:02.289Z,56.20
2023-05-25T13:50:28.947Z,56.20
2023-05-25T13:52:55.468Z,56.20
2023-05-25T13:55:22.023Z,56.20
2023-05-25T13:57:48.540Z,56.30
2023-05-25T14:00:15.072Z,56.20
2023-05-25T14:02:41.818Z,56.20
2023-05-25T14:05:08.690Z,56.30
2023-05-25T14:07:35.240Z,56.40
2023-05-25T14:10:01.761Z,56.30
2023-05-25T14:12:28.305Z,56.40
2023-05-25T14:14:54.891Z,56.40
2023-05-25T14:17:21.421Z,56.40
2023-05-25T14:19:47.980Z,56.50
2023-05-25T14:22:18.702Z,56.40
2023-05-25T14:24:45.216Z,56.30
2023-05-25T14:27:11.730Z,56.40
2023-05-25T14:29:38.288Z,56.50
2023-05-25T14:32:04.882Z,56.50
2023-05-25T14:34:31.458Z,56.60
2023-05-25T14:36:57.981Z,56.50
2023-05-25T14:39:24.512Z,56.70
2023-05-25T14:41:51.067Z,57.40
2023-05-25T14:44:17.617Z,56.50
2023-05-25T14:46:44.275Z,56.50
2023-05-25T14:49:10.879Z,56.60
2023-05-25T14:51:37.436Z,56.40
2023-05-25T14:54:03.929Z,56.50
2023-05-25T14:56:30.469Z,56.50
2023-05-25T14:58:57.058Z,56.50
2023-05-25T15:01:25.399Z,56.60
2023-05-25T15:03:52.388Z,56.50
2023-05-25T15:06:19.138Z,56.70
2023-05-25T15:08:45.659Z,56.60
2023-05-25T15:11:12.176Z,56.70
2023-05-25T15:13:38.694Z,56.50
2023-05-25T15:16:05.257Z,56.50
2023-05-25T15:18:31.890Z,56.60
2023-05-25T15:20:58.461Z,56.60
2023-05-25T15:23:24.979Z,56.50
2023-05-25T15:25:51.512Z,56.60
2023-05-25T15:28:18.025Z,56.50
2023-05-25T15:30:44.548Z,56.30
2023-05-25T15:33:11.103Z,56.60
2023-05-25T15:35:37.649Z,56.60
2023-05-25T15:38:04.246Z,56.70
2023-05-25T15:40:30.789Z,56.40
2023-05-25T15:42:57.340Z,56.50
2023-05-25T15:45:23.884Z,56.50
2023-05-25T15:47:50.442Z,56.40
2023-05-25T15:50:17.024Z,56.40
2023-05-25T15:52:43.533Z,56.50
2023-05-25T15:55:10.098Z,56.60
2023-05-25T15:57:36.642Z,56.50
2023-05-25T16:00:03.169Z,56.60
2023-05-25T16:02:29.789Z,56.50
2023-05-25T16:04:56.350Z,56.80
2023-05-25T16:07:22.904Z,56.70
2023-05-25T16:09:49.426Z,56.60
2023-05-25T16:12:15.963Z,56.50
2023-05-25T16:14:42.492Z,56.70
2023-05-25T16:17:09.001Z,56.60
2023-05-25T16:19:35.513Z,56.60
2023-05-25T16:22:02.048Z,56.60
2023-05-25T16:24:28.586Z,56.50
2023-05-25T16:26:55.131Z,56.70
2023-05-25T16:29:21.660Z,56.60
2023-05-25T16:31:48.211Z,56.70
2023-05-25T16:34:14.764Z,56.60
2023-05-25T16:36:41.285Z,56.70
2023-05-25T16:39:07.840Z,56.50
2023-05-25T16:41:34.431Z,56.80
2023-05-25T16:44:01.024Z,56.60
2023-05-25T16:46:27.581Z,56.70
2023-05-25T16:48:54.097Z,56.90
2023-05-25T16:51:20.620Z,56.60
2023-05-25T16:53:47.147Z,56.60
2023-05-25T16:56:13.670Z,56.80
2023-05-25T16:58:40.187Z,56.80
2023-05-25T17:01:06.980Z,56.80
2023-05-25T17:03:33.655Z,56.70
2023-05-25T17:06:00.232Z,56.80
2023-05-25T17:08:26.744Z,56.80
2023-05-25T17:10:53.265Z,56.80
2023-05-25T17:13:19.819Z,56.80
2023-05-25T17:15:46.555Z,56.80
2023-05-25T17:18:13.336Z,56.90
2023-05-25T17:20:39.991Z,56.80
2023-05-25T17:23:06.651Z,56.90
2023-05-25T17:25:34.265Z,56.80
2023-05-25T17:28:01.023Z,56.90
2023-05-25T17:30:27.552Z,57.00
2023-05-25T17:32:54.211Z,57.00
2023-05-25T17:35:20.768Z,57.00
2023-05-25T17:37:47.289Z,57.00
2023-05-25T17:40:13.794Z,57.00
2023-05-25T17:42:40.311Z,56.90
2023-05-25T17:45:06.827Z,56.90
2023-05-25T17:47:36.696Z,57.10
2023-05-25T17:50:03.205Z,57.00
2023-05-25T17:52:29.742Z,57.10
2023-05-25T17:54:56.234Z,57.10
2023-05-25T17:57:22.778Z,57.10
2023-05-25T17:59:49.296Z,57.10
2023-05-25T18:02:15.890Z,57.10
2023-05-25T18:04:42.506Z,57.10
2023-05-25T18:07:09.042Z,57.10
2023-05-25T18:09:35.587Z,57.10
2023-05-25T18:12:02.089Z,57.20
2023-05-25T18:14:28.624Z,57.20
2023-05-25T18:16:55.198Z,57.20
2023-05-25T18:19:21.774Z,57.20
2023-05-25T18:21:48.310Z,57.20
2023-05-25T18:24:14.854Z,57.20
2023-05-25T18:26:41.364Z,57.30
2023-05-25T18:29:07.916Z,57.30
2023-05-25T18:31:34.552Z,57.30
2023-05-25T18:34:01.139Z,57.40
2023-05-25T18:36:27.636Z,57.40
2023-05-25T18:38:54.161Z,57.50
2023-05-25T18:41:21.464Z,57.40
2023-05-25T18:43:48.147Z,57.40
2023-05-25T18:46:14.708Z,57.40
2023-05-25T18:48:41.278Z,57.40
2023-05-25T18:51:07.779Z,57.40
2023-05-25T18:53:34.293Z,57.30
2023-05-25T18:56:00.786Z,57.30
2023-05-25T18:58:30.697Z,57.30
2023-05-25T19:00:57.189Z,57.30
2023-05-25T19:03:23.769Z,57.20
2023-05-25T19:05:50.343Z,57.30
2023-05-25T19:08:16.859Z,57.30
2023-05-25T19:10:43.390Z,57.30
2023-05-25T19:13:09.915Z,57.30
2023-05-25T19:15:36.458Z,57.20
2023-05-25T19:18:03.018Z,57.20
2023-05-25T19:20:29.639Z,57.20
2023-05-25T19:22:56.210Z,57.10
2023-05-25T19:25:22.738Z,57.10
2023-05-25T19:27:49.253Z,57.10
2023-05-25T19:30:15.776Z,57.10
2023-05-25T19:32:42.334Z,57.10
2023-05-25T19:35:08.893Z,57.20
2023-05-25T19:37:35.394Z,57.20
2023-05-25T19:40:01.922Z,57.10
2023-05-25T19:42:28.428Z,57.10
2023-05-25T19:44:54.943Z,57.10
2023-05-25T19:47:21.519Z,57.20
2023-05-25T19:49:48.098Z,57.10
2023-05-25T19:52:14.631Z,57.20
2023-05-25T19:54:41.147Z,57.20
2023-05-25T19:57:07.666Z,57.20
2023-05-25T19:59:34.205Z,57.20
2023-05-25T20:02:00.745Z,57.20
2023-05-25T20:04:27.264Z,57.30
2023-05-25T20:06:53.802Z,57.30
2023-05-25T20:09:20.303Z,57.40
2023-05-25T20:11:46.804Z,57.50
2023-05-25T20:14:13.332Z,57.60
2023-05-25T20:16:40.074Z,57.60
2023-05-25T20:19:06.712Z,57.60
2023-05-25T20:21:33.236Z,57.70
2023-05-25T20:23:59.780Z,57.80
2023-05-25T20:26:26.296Z,57.80
2023-05-25T20:28:52.818Z,57.80
2023-05-25T20:31:19.366Z,57.70
2023-05-25T20:33:45.911Z,57.60
2023-05-25T20:36:13.751Z,57.60
2023-05-25T20:38:42.093Z,57.60
2023-05-25T20:41:08.586Z,57.60
2023-05-25T20:43:35.112Z,57.60
2023-05-25T20:46:01.667Z,57.70
2023-05-25T20:48:28.210Z,57.70
2023-05-25T20:50:54.720Z,57.70
2023-05-25T20:53:21.258Z,57.70
2023-05-25T20:55:47.795Z,57.80
2023-05-25T20:58:18.818Z,57.80
2023-05-25T21:00:45.336Z,57.80
2023-05-25T21:03:12.015Z,57.80
2023-05-25T21:05:38.566Z,57.80
2023-05-25T21:08:05.081Z,57.80
2023-05-25T21:10:31.604Z,57.80
2023-05-25T21:12:58.103Z,57.80
2023-05-25T21:15:24.818Z,57.80
2023-05-25T21:17:51.405Z,57.80
2023-05-25T21:20:17.952Z,57.80
2023-05-25T21:22:44.497Z,57.80
2023-05-25T21:25:11.053Z,57.80
2023-05-25T21:27:37.551Z,57.80
2023-05-25T21:30:04.090Z,57.80
2023-05-25T21:32:30.674Z,57.70
2023-05-25T21:34:57.217Z,57.80
2023-05-25T21:37:23.718Z,57.70
2023-05-25T21:39:50.223Z,57.80
2023-05-25T21:42:16.787Z,57.70
2023-05-25T21:44:43.294Z,57.70
2023-05-25T21:47:12.910Z,57.80
2023-05-25T21:49:39.552Z,57.70
2023-05-25T21:52:06.086Z,57.70
2023-05-25T21:54:32.591Z,57.80
2023-05-25T21:56:59.102Z,57.80
2023-05-25T21:59:25.612Z,57.80
2023-05-25T22:01:52.156Z,57.70
2023-05-25T22:04:18.698Z,57.60
2023-05-25T22:06:45.212Z,57.60
2023-05-25T22:09:11.730Z,57.70
2023-05-25T22:11:38.251Z,57.80
2023-05-25T22:14:04.804Z,57.70
2023-05-25T22:16:31.394Z,57.70
2023-05-25T22:18:57.980Z,57.70
2023-05-25T22:21:24.519Z,57.80
2023-05-25T22:23:51.053Z,57.60
2023-05-25T22:26:17.583Z,57.60
2023-05-25T22:28:44.126Z,58.30
2023-05-25T22:31:10.727Z,57.50
2023-05-25T22:33:37.250Z,57.60
2023-05-25T22:36:03.763Z,57.50
2023-05-25T22:38:30.274Z,57.50
2023-05-25T22:40:56.783Z,57.40
2023-05-25T22:43:23.286Z,57.30
2023-05-25T22:45:49.804Z,57.40
2023-05-25T22:48:16.313Z,57.30
2023-05-25T22:50:42.839Z,57.30
2023-05-25T22:53:09.379Z,57.20
2023-05-25T22:55:35.901Z,57.10
2023-05-25T22:58:02.426Z,57.20
2023-05-25T23:00:28.939Z,57.10
2023-05-25T23:02:55.617Z,57.30
2023-05-25T23:05:22.263Z,57.10
2023-05-25T23:07:48.797Z,57.10
2023-05-25T23:10:15.330Z,57.10
2023-05-25T23:12:41.838Z,57.10
2023-05-25T23:15:08.359Z,57.00
2023-05-25T23:17:34.925Z,57.10
2023-05-25T23:20:01.495Z,57.00
2023-05-25T23:22:28.023Z,57.10
2023-05-25T23:24:54.913Z,57.10
2023-05-25T23:27:21.584Z,57.00
2023-05-25T23:29:48.102Z,56.90
2023-05-25T23:32:14.617Z,57.00
2023-05-25T23:34:41.127Z,57.00
2023-05-25T23:37:07.659Z,56.90
2023-05-25T23:39:36.897Z,56.80
2023-05-25T23:42:03.417Z,56.80
2023-05-25T23:44:29.920Z,56.90
2023-05-25T23:46:56.441Z,56.80
2023-05-25T23:49:23.055Z,56.70
2023-05-25T23:51:49.614Z,56.80
2023-05-25T23:54:16.118Z,56.60
2023-05-25T23:56:42.632Z,56.60
2023-05-25T23:59:09.141Z,56.50
